Time;durP1;ratioP1;P1;durP2;ratioP2;P2;SDS_P1;SDS_P2;PMS_P1;PMS_P2;Temp;Humidity;BMP_temperature;BMP_pressure;BME280_temperature;BME280_humidity;BME280_pressure;Samples;Min_cycle;Max_cycle;Signal;HPM_P1;HPM_P2
2023/12/15 00:01:04;;;;;;;4.15;2.42;;;9.40;49.30;;;;;;5051799;28;20180;-51
2023/12/15 00:03:30;;;;;;;2.03;1.25;;;9.40;49.30;;;;;;5051590;28;20212;-49
2023/12/15 00:05:59;;;;;;;0.80;0.20;;;9.30;49.20;;;;;;5051588;28;20173;-56
2023/12/15 00:08:25;;;;;;;1.17;0.60;;;9.30;50.20;;;;;;5051293;28;20275;-54
2023/12/15 00:10:51;;;;;;;1.00;0.57;;;9.20;49.50;;;;;;5051535;28;20250;-51
2023/12/15 00:13:17;;;;;;;0.90;0.50;;;9.10;49.70;;;;;;5051462;28;20414;-54
2023/12/15 00:15:43;;;;;;;2.35;1.13;;;9.20;49.70;;;;;;5051418;28;20418;-51
2023/12/15 00:18:08;;;;;;;2.35;1.70;;;9.20;49.70;;;;;;5051137;28;20254;-50
2023/12/15 00:20:34;;;;;;;1.30;0.53;;;9.10;50.50;;;;;;5051407;28;20247;-56
2023/12/15 00:23:00;;;;;;;1.83;1.73;;;9.10;50.60;;;;;;5051256;28;20543;-50
2023/12/15 00:25:26;;;;;;;1.75;0.90;;;9.20;49.90;;;;;;5053043;28;20790;-52
2023/12/15 00:27:52;;;;;;;1.20;0.67;;;9.20;49.90;;;;;;5054977;28;20182;-53
2023/12/15 00:30:18;;;;;;;2.70;2.00;;;9.20;49.80;;;;;;5055118;28;20403;-51
2023/12/15 00:32:44;;;;;;;1.30;0.95;;;9.20;49.70;;;;;;5055129;28;20174;-50
2023/12/15 00:35:10;;;;;;;0.90;0.45;;;9.20;49.70;;;;;;5055061;28;20181;-51
2023/12/15 00:37:36;;;;;;;3.85;3.42;;;9.20;49.70;;;;;;5054647;28;20297;-56
2023/12/15 00:40:02;;;;;;;1.97;0.67;;;9.20;49.70;;;;;;5054991;28;20280;-52
2023/12/15 00:42:28;;;;;;;2.95;2.67;;;9.20;49.50;;;;;;5054766;28;20631;-55
2023/12/15 00:44:56;;;;;;;3.83;1.60;;;9.20;49.50;;;;;;5054906;28;20258;-52
2023/12/15 00:47:22;;;;;;;1.85;1.10;;;9.20;49.50;;;;;;5054496;28;20408;-48
2023/12/15 00:49:48;;;;;;;2.47;0.95;;;9.10;49.50;;;;;;5054801;28;20252;-53
2023/12/15 00:52:13;;;;;;;5.27;1.80;;;9.10;49.60;;;;;;5054558;28;20223;-53
2023/12/15 00:54:39;;;;;;;1.88;0.50;;;9.10;49.70;;;;;;5054727;28;20691;-50
2023/12/15 00:57:05;;;;;;;1.10;0.77;;;9.10;49.60;;;;;;5054448;28;20197;-57
2023/12/15 00:59:31;;;;;;;2.23;0.90;;;9.10;49.60;;;;;;5054412;28;20459;-49
2023/12/15 01:01:57;;;;;;;1.20;0.70;;;9.10;49.70;;;;;;5054483;28;20410;-52
2023/12/15 01:04:23;;;;;;;6.90;1.90;;;9.10;49.60;;;;;;5054482;28;20409;-52
2023/12/15 01:06:48;;;;;;;1.33;1.00;;;9.10;49.60;;;;;;5054276;28;20396;-51
2023/12/15 01:09:14;;;;;;;1.93;0.90;;;9.10;49.70;;;;;;5054347;28;20487;-48
2023/12/15 01:11:40;;;;;;;1.87;0.90;;;9.10;49.40;;;;;;5054278;28;20403;-52
2023/12/15 01:14:06;;;;;;;2.17;1.10;;;9.20;49.50;;;;;;5054364;28;20417;-53
2023/12/15 01:16:32;;;;;;;1.97;0.50;;;9.10;49.60;;;;;;5054170;28;20485;-47
2023/12/15 01:18:58;;;;;;;1.00;0.80;;;9.10;49.50;;;;;;5054088;28;20813;-55
2023/12/15 01:21:23;;;;;;;1.20;0.67;;;9.20;49.60;;;;;;5054066;28;20406;-49
2023/12/15 01:23:49;;;;;;;1.00;0.40;;;9.20;49.40;;;;;;5054061;28;20411;-50
2023/12/15 01:26:15;;;;;;;1.25;0.80;;;9.20;49.30;;;;;;5054056;28;20161;-54
2023/12/15 01:28:42;;;;;;;1.47;0.60;;;9.20;49.30;;;;;;5054091;28;20693;-55
2023/12/15 01:31:07;;;;;;;1.38;0.77;;;9.20;49.30;;;;;;5054011;28;20406;-50
2023/12/15 01:33:33;;;;;;;2.80;1.13;;;9.20;49.30;;;;;;5053976;28;20180;-49
2023/12/15 01:35:59;;;;;;;4.43;2.30;;;9.20;49.30;;;;;;5053790;28;20199;-55
2023/12/15 01:38:25;;;;;;;4.00;1.13;;;9.30;49.40;;;;;;5053431;28;20488;-51
2023/12/15 01:40:50;;;;;;;1.67;1.10;;;9.30;49.10;;;;;;5053702;28;20177;-51
2023/12/15 01:43:16;;;;;;;3.53;0.60;;;9.20;48.90;;;;;;5053822;28;20168;-52
2023/12/15 01:45:42;;;;;;;0.90;0.50;;;9.20;48.80;;;;;;5053741;28;20171;-51
2023/12/15 01:48:08;;;;;;;6.33;1.27;;;9.10;48.80;;;;;;5053436;28;20462;-48
2023/12/15 01:50:34;;;;;;;2.13;0.90;;;9.10;48.90;;;;;;5053518;28;20438;-57
2023/12/15 01:53:00;;;;;;;4.43;1.20;;;9.10;48.90;;;;;;5053781;28;20415;-51
2023/12/15 01:55:26;;;;;;;0.90;0.40;;;9.10;48.80;;;;;;5053553;28;20432;-52
2023/12/15 01:57:52;;;;;;;1.38;0.90;;;9.00;48.80;;;;;;5053234;28;20678;-56
2023/12/15 02:00:18;;;;;;;1.37;1.00;;;9.00;49.00;;;;;;5053466;28;20177;-49
2023/12/15 02:02:43;;;;;;;2.50;0.93;;;9.00;49.00;;;;;;5053436;28;20165;-48
2023/12/15 02:05:09;;;;;;;1.10;0.87;;;8.90;49.00;;;;;;5053277;28;20407;-53
2023/12/15 02:07:35;;;;;;;1.20;0.40;;;8.90;48.90;;;;;;5053100;28;20407;-53
2023/12/15 02:10:01;;;;;;;1.00;0.90;;;8.90;48.90;;;;;;5053441;28;20454;-48
2023/12/15 02:12:27;;;;;;;1.40;1.00;;;8.80;48.90;;;;;;5053177;28;20901;-54
2023/12/15 02:14:53;;;;;;;1.25;1.02;;;8.80;49.00;;;;;;5053295;28;20177;-54
2023/12/15 02:17:19;;;;;;;1.53;0.93;;;8.80;49.10;;;;;;5053024;28;20649;-50
2023/12/15 02:19:45;;;;;;;0.90;0.50;;;8.80;49.20;;;;;;5053011;28;20859;-51
2023/12/15 02:22:11;;;;;;;1.30;1.00;;;8.80;49.10;;;;;;5053056;28;20169;-54
2023/12/15 02:24:39;;;;;;;2.03;1.30;;;8.80;49.00;;;;;;5052995;28;20941;-50
2023/12/15 02:27:05;;;;;;;0.80;0.40;;;8.80;49.00;;;;;;5052792;28;20499;-57
2023/12/15 02:29:31;;;;;;;1.87;1.03;;;8.80;49.00;;;;;;5052800;28;20633;-51
2023/12/15 02:31:57;;;;;;;1.13;0.88;;;8.80;49.10;;;;;;5052786;28;20423;-53
2023/12/15 02:34:24;;;;;;;0.90;0.50;;;8.80;49.20;;;;;;5052719;28;20180;-50
2023/12/15 02:36:51;;;;;;;1.50;1.23;;;8.80;49.30;;;;;;5052685;28;20447;-49
2023/12/15 02:39:17;;;;;;;1.02;0.60;;;8.80;49.20;;;;;;5052416;28;20258;-56
2023/12/15 02:41:44;;;;;;;2.40;0.83;;;8.80;49.30;;;;;;5052659;28;20161;-56
2023/12/15 02:44:11;;;;;;;1.90;1.15;;;8.80;49.30;;;;;;5052559;28;20407;-49
2023/12/15 02:46:37;;;;;;;2.20;2.00;;;8.80;49.30;;;;;;5052427;28;20264;-56
2023/12/15 02:49:03;;;;;;;2.60;1.70;;;8.80;49.30;;;;;;5051952;28;20669;-56
2023/12/15 02:51:30;;;;;;;1.30;0.98;;;8.80;49.40;;;;;;5052450;28;20175;-50
2023/12/15 02:53:58;;;;;;;1.70;1.60;;;8.80;49.30;;;;;;5052413;28;20173;-50
2023/12/15 02:56:25;;;;;;;1.10;0.43;;;8.80;49.30;;;;;;5052291;28;20247;-56
2023/12/15 02:58:51;;;;;;;2.63;0.73;;;8.80;49.30;;;;;;5052261;28;20309;-51
2023/12/15 03:01:17;;;;;;;2.20;1.83;;;8.80;49.20;;;;;;5052231;28;20681;-52
2023/12/15 03:03:43;;;;;;;1.83;0.80;;;8.80;49.90;;;;;;5052279;28;20464;-51
2023/12/15 03:06:08;;;;;;;2.28;0.80;;;8.80;49.20;;;;;;5052430;28;20802;-50
2023/12/15 03:08:34;;;;;;;1.77;1.67;;;8.80;49.30;;;;;;5051938;28;20322;-56
2023/12/15 03:11:00;;;;;;;1.33;1.23;;;8.80;49.30;;;;;;5052117;28;20408;-55
2023/12/15 03:13:30;;;;;;;3.28;0.60;;;8.80;49.30;;;;;;5052178;28;20528;-49
2023/12/15 03:16:14;;;;;;;1.23;1.00;;;8.70;49.50;;;;;;5052020;28;20180;-52
2023/12/15 03:18:40;;;;;;;1.02;0.90;;;8.70;49.50;;;;;;5051826;28;20223;-53
2023/12/15 03:21:06;;;;;;;6.33;1.17;;;8.70;49.70;;;;;;5051970;28;20176;-50
2023/12/15 03:23:32;;;;;;;1.00;0.90;;;8.80;49.50;;;;;;5051914;28;20416;-50
2023/12/15 03:25:58;;;;;;;2.33;1.70;;;8.80;49.50;;;;;;5051964;28;20183;-52
2023/12/15 03:28:24;;;;;;;14.82;1.40;;;8.80;49.30;;;;;;5051531;28;20196;-54
2023/12/15 03:30:50;;;;;;;3.67;1.20;;;8.70;49.50;;;;;;5052098;28;20183;-49
2023/12/15 03:33:16;;;;;;;1.70;1.23;;;8.70;49.50;;;;;;5051886;28;20404;-54
2023/12/15 03:35:41;;;;;;;7.22;4.07;;;8.60;49.50;;;;;;5051878;28;20414;-51
2023/12/15 03:38:11;;;;;;;4.20;2.33;;;8.60;49.50;;;;;;5051406;28;20215;-52
2023/12/15 03:40:37;;;;;;;1.20;0.80;;;8.60;49.60;;;;;;5051833;28;20490;-57
2023/12/15 03:43:03;;;;;;;12.33;3.10;;;8.70;49.60;;;;;;5051759;28;20634;-51
2023/12/15 03:45:28;;;;;;;1.70;1.20;;;8.70;49.60;;;;;;5051732;28;20171;-56
2023/12/15 03:47:54;;;;;;;1.90;0.73;;;8.70;49.50;;;;;;5051696;28;20474;-56
2023/12/15 03:50:20;;;;;;;3.40;1.10;;;8.80;49.40;;;;;;5051742;28;20403;-50
2023/12/15 03:52:46;;;;;;;0.90;0.70;;;8.70;49.30;;;;;;5051612;28;20483;-52
2023/12/15 03:55:12;;;;;;;5.47;2.17;;;8.70;49.40;;;;;;5051727;28;20172;-53
2023/12/15 03:57:38;;;;;;;3.43;2.77;;;8.70;49.50;;;;;;5051355;28;20704;-48
2023/12/15 04:00:07;;;;;;;2.25;2.10;;;8.70;49.50;;;;;;5034988;28;20564;-54
2023/12/15 04:02:34;;;;;;;14.63;1.70;;;8.70;49.30;;;;;;5055566;28;20192;-51
2023/12/15 04:05:00;;;;;;;7.72;4.35;;;8.70;49.20;;;;;;5037887;28;20407;-50
2023/12/15 04:07:26;;;;;;;1.85;1.75;;;8.60;48.90;;;;;;5055357;28;20535;-52
2023/12/15 04:09:52;;;;;;;5.33;2.30;;;8.60;49.00;;;;;;5055593;28;20166;-50
2023/12/15 04:12:18;;;;;;;5.27;1.20;;;8.60;48.90;;;;;;5055333;28;20411;-49
2023/12/15 04:14:44;;;;;;;3.05;2.58;;;8.60;48.70;;;;;;5055620;28;20411;-55
2023/12/15 04:17:10;;;;;;;4.43;2.37;;;8.60;48.80;;;;;;5055287;28;20632;-55
2023/12/15 04:19:36;;;;;;;9.03;3.17;;;8.60;48.80;;;;;;5055299;28;20459;-49
2023/12/15 04:22:01;;;;;;;2.90;1.63;;;8.60;48.70;;;;;;5055222;28;20472;-52
2023/12/15 04:24:27;;;;;;;1.10;0.60;;;8.60;48.70;;;;;;5055296;28;20450;-54
2023/12/15 04:26:53;;;;;;;3.57;1.30;;;8.50;48.60;;;;;;5055045;28;20414;-51
2023/12/15 04:29:19;;;;;;;1.40;1.30;;;8.50;48.60;;;;;;5055320;28;20435;-51
2023/12/15 04:31:45;;;;;;;1.47;1.03;;;8.50;48.60;;;;;;5055164;28;20716;-55
2023/12/15 04:34:11;;;;;;;1.90;1.27;;;8.40;48.60;;;;;;5054963;28;20425;-56
2023/12/15 04:36:38;;;;;;;0.90;0.57;;;8.50;48.70;;;;;;5054886;28;20494;-51
2023/12/15 04:39:04;;;;;;;3.88;3.15;;;8.50;48.90;;;;;;5054752;28;20549;-54
2023/12/15 04:41:30;;;;;;;1.70;1.40;;;8.40;48.80;;;;;;5054836;28;20744;-51
2023/12/15 04:43:56;;;;;;;3.63;1.33;;;8.50;48.60;;;;;;5054942;28;20252;-52
2023/12/15 04:46:26;;;;;;;2.00;1.00;;;8.50;48.70;;;;;;5054841;28;20400;-54
2023/12/15 04:48:54;;;;;;;5.78;2.80;;;8.50;48.70;;;;;;5054728;28;20420;-51
2023/12/15 04:51:20;;;;;;;8.10;2.42;;;8.40;48.50;;;;;;5054702;28;20184;-49
2023/12/15 04:53:47;;;;;;;1.35;1.25;;;8.40;48.70;;;;;;5054609;28;20184;-53
2023/12/15 04:56:13;;;;;;;11.00;1.77;;;8.40;49.00;;;;;;5054899;28;20186;-54
2023/12/15 04:58:40;;;;;;;8.23;1.88;;;8.40;49.00;;;;;;5054318;28;20201;-51
2023/12/15 05:01:15;;;;;;;7.43;1.85;;;8.50;49.10;;;;;;5054623;28;20173;-52
2023/12/15 05:03:42;;;;;;;1.92;1.67;;;8.50;48.90;;;;;;5054466;28;20179;-54
2023/12/15 05:06:22;;;;;;;1.48;1.27;;;8.50;48.90;;;;;;5054483;28;20247;-51
2023/12/15 05:08:49;;;;;;;1.35;0.85;;;8.60;48.70;;;;;;5054391;28;20203;-55
2023/12/15 05:11:15;;;;;;;2.00;1.80;;;8.60;48.70;;;;;;5053906;28;20175;-50
2023/12/15 05:13:41;;;;;;;2.30;1.80;;;8.60;48.60;;;;;;5054390;28;20206;-54
2023/12/15 05:16:08;;;;;;;2.25;0.70;;;8.50;48.70;;;;;;5054222;28;20179;-55
2023/12/15 05:18:34;;;;;;;3.90;1.88;;;8.50;48.70;;;;;;5053948;28;20209;-50
2023/12/15 05:21:00;;;;;;;2.00;1.45;;;8.50;48.70;;;;;;5054020;28;20172;-52
2023/12/15 05:23:26;;;;;;;1.90;1.60;;;8.50;48.50;;;;;;5054075;28;20655;-52
2023/12/15 05:25:52;;;;;;;2.55;2.05;;;8.60;48.60;;;;;;5054177;28;20158;-49
2023/12/15 05:28:18;;;;;;;1.83;1.70;;;8.50;48.40;;;;;;5053849;28;20189;-51
2023/12/15 05:30:44;;;;;;;1.67;1.58;;;8.40;47.90;;;;;;5054037;28;20169;-55
2023/12/15 05:33:10;;;;;;;2.20;1.10;;;8.40;48.10;;;;;;5053885;28;20196;-52
2023/12/15 05:35:36;;;;;;;1.90;1.07;;;8.40;48.20;;;;;;5053821;28;20407;-50
2023/12/15 05:38:03;;;;;;;2.75;1.30;;;8.40;48.20;;;;;;5053418;28;20945;-52
2023/12/15 05:40:29;;;;;;;1.17;0.85;;;8.40;48.10;;;;;;5053998;28;20717;-56
2023/12/15 05:42:55;;;;;;;6.40;2.88;;;8.40;48.20;;;;;;5053763;28;20222;-51
2023/12/15 05:45:21;;;;;;;2.67;2.40;;;8.30;48.10;;;;;;5053879;28;20376;-52
2023/12/15 05:47:48;;;;;;;1.08;0.98;;;8.30;48.20;;;;;;5053511;28;20843;-54
2023/12/15 05:50:15;;;;;;;1.30;1.20;;;8.30;48.20;;;;;;5053474;28;20181;-50
2023/12/15 05:52:41;;;;;;;2.25;2.08;;;8.30;48.10;;;;;;5053611;28;20187;-52
2023/12/15 05:55:07;;;;;;;4.38;1.73;;;8.30;48.10;;;;;;5053573;28;20176;-52
2023/12/15 05:57:33;;;;;;;4.43;1.65;;;8.30;48.10;;;;;;5053318;28;20228;-50
2023/12/15 05:59:58;;;;;;;2.10;0.95;;;8.30;48.00;;;;;;5053459;28;20205;-49
2023/12/15 06:02:24;;;;;;;2.60;1.27;;;8.30;47.90;;;;;;5053424;28;20176;-53
2023/12/15 06:04:51;;;;;;;5.90;2.20;;;8.20;47.90;;;;;;5053258;28;20404;-54
2023/12/15 06:07:18;;;;;;;1.92;0.77;;;8.30;48.20;;;;;;5053148;28;20743;-50
2023/12/15 06:09:44;;;;;;;5.30;2.20;;;8.20;47.80;;;;;;5053151;28;20203;-50
2023/12/15 06:12:09;;;;;;;2.40;2.17;;;8.20;48.00;;;;;;5053253;28;20177;-52
2023/12/15 06:14:37;;;;;;;6.97;2.80;;;8.20;47.90;;;;;;5053253;28;20670;-54
2023/12/15 06:17:06;;;;;;;1.80;1.13;;;8.20;48.00;;;;;;5052975;28;20407;-49
2023/12/15 06:19:33;;;;;;;2.00;1.63;;;8.20;47.80;;;;;;5052922;28;20213;-52
2023/12/15 06:22:00;;;;;;;7.60;1.77;;;8.20;47.80;;;;;;5052637;28;20662;-55
2023/12/15 06:24:26;;;;;;;2.78;0.90;;;8.20;47.80;;;;;;5052465;28;20188;-49
2023/12/15 06:26:52;;;;;;;2.35;1.38;;;8.20;47.60;;;;;;5052876;28;20179;-55
2023/12/15 06:29:18;;;;;;;6.35;2.72;;;8.20;47.60;;;;;;5052828;28;20185;-50
2023/12/15 06:31:47;;;;;;;3.30;2.20;;;8.20;47.60;;;;;;5052705;28;20238;-51
2023/12/15 06:34:14;;;;;;;1.25;1.13;;;8.20;47.40;;;;;;5052792;28;20406;-55
2023/12/15 06:36:40;;;;;;;2.20;1.95;;;8.20;47.40;;;;;;5052575;28;20180;-50
2023/12/15 06:39:06;;;;;;;1.35;1.25;;;8.20;47.40;;;;;;5052431;28;20693;-56
2023/12/15 06:41:32;;;;;;;1.77;1.55;;;8.20;47.50;;;;;;5052755;28;20260;-57
2023/12/15 06:43:58;;;;;;;1.57;1.47;;;8.10;47.50;;;;;;5052635;28;20311;-51
2023/12/15 06:46:25;;;;;;;1.60;1.37;;;8.10;47.50;;;;;;5052312;28;20408;-55
2023/12/15 06:48:51;;;;;;;2.65;2.45;;;8.10;47.30;;;;;;5052382;28;20440;-55
2023/12/15 06:51:17;;;;;;;1.08;0.82;;;8.10;47.50;;;;;;5052388;28;20181;-49
2023/12/15 06:53:43;;;;;;;1.25;0.68;;;8.20;47.50;;;;;;5052558;28;20242;-52
2023/12/15 06:56:09;;;;;;;1.33;1.10;;;8.10;47.50;;;;;;5052458;28;20643;-54
2023/12/15 06:58:35;;;;;;;1.55;0.73;;;8.20;47.20;;;;;;5052096;28;20454;-52
2023/12/15 07:01:01;;;;;;;3.17;1.83;;;8.20;47.20;;;;;;5052285;28;20662;-49
2023/12/15 07:03:28;;;;;;;9.07;1.40;;;8.20;47.30;;;;;;5052514;28;20186;-53
2023/12/15 07:05:54;;;;;;;5.57;1.75;;;8.20;47.20;;;;;;5052251;28;20408;-52
2023/12/15 07:08:20;;;;;;;2.88;2.50;;;8.20;47.20;;;;;;5052092;28;20201;-51
2023/12/15 07:10:46;;;;;;;7.90;2.40;;;8.20;47.40;;;;;;5052134;28;20203;-54
2023/12/15 07:13:12;;;;;;;6.50;2.80;;;8.10;47.20;;;;;;5052067;28;20419;-50
2023/12/15 07:15:38;;;;;;;1.42;1.30;;;8.10;47.30;;;;;;5051973;28;20400;-48
2023/12/15 07:18:04;;;;;;;3.50;2.20;;;8.20;47.10;;;;;;5051679;28;20193;-54
2023/12/15 07:20:30;;;;;;;1.10;0.68;;;8.10;46.90;;;;;;5052067;28;20396;-54
2023/12/15 07:22:56;;;;;;;1.87;1.70;;;8.10;46.90;;;;;;5052081;28;20670;-51
2023/12/15 07:25:24;;;;;;;2.00;1.60;;;8.10;47.00;;;;;;5051970;28;20400;-50
2023/12/15 07:27:51;;;;;;;7.07;4.28;;;8.00;46.90;;;;;;5051688;28;20181;-51
2023/12/15 07:30:17;;;;;;;2.45;1.13;;;8.00;46.70;;;;;;5052100;28;20186;-54
2023/12/15 07:32:42;;;;;;;2.13;1.67;;;8.00;46.70;;;;;;5051811;28;20161;-54
2023/12/15 07:35:09;;;;;;;4.60;2.43;;;7.90;46.70;;;;;;5051816;28;20415;-49
2023/12/15 07:37:35;;;;;;;3.22;2.47;;;7.90;46.60;;;;;;5051499;28;20414;-51
2023/12/15 07:40:03;;;;;;;4.20;0.82;;;7.80;46.50;;;;;;5051783;28;20214;-55
2023/12/15 07:42:30;;;;;;;3.08;0.95;;;7.80;46.30;;;;;;5051715;28;20176;-56
2023/12/15 07:44:56;;;;;;;2.85;1.85;;;7.70;46.60;;;;;;5051783;28;20166;-49
2023/12/15 07:47:22;;;;;;;1.27;0.82;;;7.70;46.70;;;;;;5051518;28;20181;-53
2023/12/15 07:49:48;;;;;;;2.30;2.10;;;7.60;46.70;;;;;;5051744;28;20177;-52
2023/12/15 07:52:14;;;;;;;2.40;1.53;;;7.60;47.40;;;;;;5051579;28;20200;-53
2023/12/15 07:54:40;;;;;;;3.47;1.60;;;7.60;46.60;;;;;;5051750;28;20400;-55
2023/12/15 07:57:06;;;;;;;5.60;1.90;;;7.70;46.90;;;;;;5051454;28;20498;-51
2023/12/15 07:59:35;;;;;;;4.30;2.10;;;7.70;47.10;;;;;;5051743;28;20761;-57
2023/12/15 08:02:03;;;;;;;3.03;2.05;;;7.70;47.10;;;;;;5051558;28;20410;-50
2023/12/15 08:04:28;;;;;;;1.77;1.40;;;7.80;46.90;;;;;;5051653;28;20173;-49
2023/12/15 08:06:54;;;;;;;1.40;1.03;;;7.80;46.70;;;;;;5051520;28;20184;-56
2023/12/15 08:09:20;;;;;;;1.27;1.17;;;7.70;46.70;;;;;;5051824;28;20427;-49
2023/12/15 08:11:46;;;;;;;2.00;1.80;;;7.70;46.80;;;;;;5051398;28;20487;-51
2023/12/15 08:14:12;;;;;;;3.43;1.90;;;7.70;46.70;;;;;;5051672;28;20412;-56
2023/12/15 08:16:38;;;;;;;3.27;1.70;;;7.70;46.90;;;;;;5051319;28;20403;-50
2023/12/15 08:19:07;;;;;;;2.85;1.55;;;7.70;46.90;;;;;;5051340;28;20995;-53
2023/12/15 08:21:33;;;;;;;2.55;2.00;;;7.70;46.70;;;;;;5051415;28;20220;-52
2023/12/15 08:23:59;;;;;;;2.00;1.77;;;7.70;47.00;;;;;;5051444;28;20184;-52
2023/12/15 08:26:27;;;;;;;2.60;1.15;;;7.80;47.10;;;;;;5051171;28;20244;-51
2023/12/15 08:28:53;;;;;;;2.47;1.52;;;7.80;47.10;;;;;;5051277;28;20202;-52
2023/12/15 08:31:23;;;;;;;4.18;2.25;;;7.90;47.20;;;;;;5051460;28;20185;-50
2023/12/15 08:33:50;;;;;;;5.45;1.30;;;8.00;47.30;;;;;;5051330;28;20165;-51
2023/12/15 08:36:16;;;;;;;1.17;1.00;;;8.00;47.30;;;;;;5051287;28;20181;-52
2023/12/15 08:38:42;;;;;;;1.77;1.58;;;8.10;47.50;;;;;;5050830;28;20240;-49
2023/12/15 08:41:08;;;;;;;1.10;1.00;;;8.20;47.60;;;;;;5051181;28;20212;-54
2023/12/15 08:43:36;;;;;;;2.67;1.75;;;8.20;47.50;;;;;;5051259;28;20403;-55
2023/12/15 08:46:02;;;;;;;1.55;1.40;;;8.30;47.60;;;;;;5052065;28;20181;-50
2023/12/15 08:48:28;;;;;;;12.43;2.33;;;8.30;47.60;;;;;;5054700;28;20264;-54
2023/12/15 08:50:54;;;;;;;1.97;0.93;;;8.40;47.60;;;;;;5054875;28;20277;-50
2023/12/15 08:53:20;;;;;;;2.90;1.70;;;8.40;47.60;;;;;;5054667;28;20430;-51
2023/12/15 08:55:46;;;;;;;2.40;2.22;;;8.50;47.70;;;;;;5054689;28;20407;-54
2023/12/15 08:58:13;;;;;;;2.30;1.92;;;8.50;47.60;;;;;;5054356;28;20200;-51
2023/12/15 09:00:39;;;;;;;1.35;1.25;;;8.60;47.60;;;;;;5054556;28;20642;-53
2023/12/15 09:03:05;;;;;;;1.52;1.23;;;8.60;47.50;;;;;;5054591;28;20204;-57
2023/12/15 09:05:32;;;;;;;2.72;2.15;;;8.60;47.30;;;;;;5054464;28;20201;-50
2023/12/15 09:07:58;;;;;;;4.22;2.75;;;8.60;47.30;;;;;;5054246;28;20189;-56
2023/12/15 09:10:24;;;;;;;1.58;1.48;;;8.70;47.00;;;;;;5054374;28;20212;-50
2023/12/15 09:12:50;;;;;;;4.38;1.80;;;8.70;47.20;;;;;;5054359;28;20196;-57
2023/12/15 09:15:16;;;;;;;7.80;1.85;;;8.70;47.30;;;;;;5054312;28;20534;-56
2023/12/15 09:17:43;;;;;;;5.03;1.77;;;8.70;47.50;;;;;;5054063;28;20679;-50
2023/12/15 09:20:11;;;;;;;5.70;1.60;;;8.80;47.60;;;;;;5054160;28;20203;-56
2023/12/15 09:22:38;;;;;;;1.23;1.00;;;8.90;47.70;;;;;;5054111;28;20180;-55
2023/12/15 09:25:05;;;;;;;5.00;2.00;;;9.00;47.50;;;;;;5054394;28;20182;-50
2023/12/15 09:27:31;;;;;;;10.25;3.70;;;9.10;47.20;;;;;;5053866;28;20181;-56
2023/12/15 09:29:59;;;;;;;2.70;2.50;;;9.10;46.90;;;;;;5054104;28;20184;-56
2023/12/15 09:32:25;;;;;;;5.30;1.50;;;9.20;47.10;;;;;;5053996;28;20408;-50
2023/12/15 09:34:51;;;;;;;2.38;2.17;;;9.30;47.20;;;;;;5054093;28;20256;-54
2023/12/15 09:37:17;;;;;;;3.07;2.83;;;9.40;46.90;;;;;;5053693;28;20252;-50
2023/12/15 09:39:43;;;;;;;4.40;2.50;;;9.70;46.80;;;;;;5053662;28;20473;-49
2023/12/15 09:42:09;;;;;;;2.30;1.93;;;9.70;44.90;;;;;;5053734;28;20472;-54
2023/12/15 09:44:35;;;;;;;9.33;3.53;;;9.70;45.30;;;;;;5053825;28;20392;-51
2023/12/15 09:47:01;;;;;;;5.17;2.60;;;9.70;45.60;;;;;;5053555;28;20411;-49
2023/12/15 09:49:30;;;;;;;4.25;2.92;;;9.80;45.80;;;;;;5053737;28;20922;-55
2023/12/15 09:52:01;;;;;;;14.55;4.50;;;9.80;45.20;;;;;;5053585;28;20195;-57
2023/12/15 09:54:28;;;;;;;5.57;2.70;;;9.80;44.80;;;;;;5053654;28;20246;-49
2023/12/15 09:56:55;;;;;;;4.22;2.00;;;9.80;44.10;;;;;;5053509;28;20208;-51
2023/12/15 09:59:21;;;;;;;6.53;3.10;;;9.70;44.50;;;;;;5053322;28;20193;-56
2023/12/15 10:01:48;;;;;;;3.33;1.92;;;9.70;44.70;;;;;;5053498;28;20174;-51
2023/12/15 10:04:14;;;;;;;2.25;2.15;;;9.90;44.90;;;;;;5053186;28;20200;-51
2023/12/15 10:06:42;;;;;;;4.20;1.83;;;10.10;45.40;;;;;;5053193;28;20181;-56
2023/12/15 10:09:13;;;;;;;11.15;2.15;;;10.40;44.90;;;;;;5053436;28;20478;-58
2023/12/15 10:11:40;;;;;;;4.25;2.20;;;10.50;42.90;;;;;;5053298;28;20231;-49
2023/12/15 10:14:07;;;;;;;9.25;4.32;;;10.50;43.10;;;;;;5053200;28;20177;-51
2023/12/15 10:16:34;;;;;;;5.28;4.15;;;10.50;43.60;;;;;;5052997;28;20711;-57
2023/12/15 10:19:08;;;;;;;4.03;2.85;;;10.40;43.60;;;;;;5052915;28;20255;-50
2023/12/15 10:21:35;;;;;;;2.78;1.60;;;10.30;41.10;;;;;;5053050;28;20172;-55
2023/12/15 10:24:22;;;;;;;4.18;2.05;;;10.10;42.00;;;;;;5053042;28;20578;-56
2023/12/15 10:26:48;;;;;;;11.10;3.10;;;9.90;43.30;;;;;;5052959;28;20169;-51
2023/12/15 10:29:17;;;;;;;6.15;1.85;;;10.00;43.40;;;;;;5052750;28;20193;-50
2023/12/15 10:31:43;;;;;;;3.33;1.05;;;10.00;42.20;;;;;;5052780;28;20244;-56
2023/12/15 10:34:09;;;;;;;3.30;2.33;;;9.90;43.00;;;;;;5053051;28;20249;-49
2023/12/15 10:36:40;;;;;;;5.53;2.40;;;10.00;43.10;;;;;;5052711;28;20236;-53
2023/12/15 10:39:07;;;;;;;2.72;2.15;;;10.00;43.00;;;;;;5052481;28;20471;-51
2023/12/15 10:41:34;;;;;;;4.47;2.20;;;10.00;43.30;;;;;;5052673;28;20173;-49
2023/12/15 10:44:04;;;;;;;6.80;3.40;;;10.00;43.40;;;;;;5052559;28;20169;-57
2023/12/15 10:46:33;;;;;;;3.85;2.83;;;10.10;44.10;;;;;;5052542;28;20172;-57
2023/12/15 10:49:00;;;;;;;8.35;2.70;;;10.10;43.20;;;;;;5052445;28;20710;-49
2023/12/15 10:51:26;;;;;;;1.38;1.27;;;10.10;43.20;;;;;;5052510;28;20181;-53
2023/12/15 10:53:53;;;;;;;4.28;2.20;;;10.30;43.00;;;;;;5052524;28;20169;-55
2023/12/15 10:56:21;;;;;;;2.97;2.65;;;10.30;43.00;;;;;;5052379;28;20256;-48
2023/12/15 10:58:47;;;;;;;2.95;1.90;;;10.30;43.00;;;;;;5052006;28;20296;-56
2023/12/15 11:01:15;;;;;;;5.85;3.67;;;10.30;43.10;;;;;;5052334;28;20169;-56
2023/12/15 11:03:41;;;;;;;3.40;2.92;;;10.30;42.60;;;;;;5052382;28;20185;-49
2023/12/15 11:06:07;;;;;;;7.33;4.47;;;10.30;43.40;;;;;;5052305;28;20608;-55
2023/12/15 11:08:33;;;;;;;5.13;2.70;;;10.30;43.00;;;;;;5051647;28;20439;-50
2023/12/15 11:11:00;;;;;;;5.50;1.98;;;10.30;43.40;;;;;;5052072;28;20179;-50
2023/12/15 11:13:53;;;;;;;10.77;2.65;;;10.30;43.00;;;;;;5052323;28;20208;-57
2023/12/15 11:16:23;;;;;;;5.25;3.80;;;10.10;43.00;;;;;;5052414;28;20600;-52
2023/12/15 11:18:52;;;;;;;1.70;1.45;;;10.00;43.30;;;;;;5051883;28;20288;-56
2023/12/15 11:21:22;;;;;;;9.85;3.97;;;10.00;43.30;;;;;;5051889;28;20547;-50
2023/12/15 11:23:55;;;;;;;6.70;3.65;;;10.00;43.00;;;;;;5051912;28;20173;-49
2023/12/15 11:26:29;;;;;;;10.02;2.38;;;10.00;43.30;;;;;;5052046;28;20647;-57
2023/12/15 11:29:07;;;;;;;14.18;4.03;;;10.00;43.00;;;;;;5051902;28;20662;-55
2023/12/15 11:31:35;;;;;;;4.80;4.05;;;10.00;43.10;;;;;;5051872;28;20169;-50
2023/12/15 11:34:03;;;;;;;5.10;3.05;;;10.10;43.10;;;;;;5051802;28;20201;-53
2023/12/15 11:36:31;;;;;;;2.58;2.13;;;10.00;43.00;;;;;;5051761;28;20169;-51
2023/12/15 11:38:59;;;;;;;7.07;2.83;;;10.00;43.20;;;;;;5051618;28;20205;-52
2023/12/15 11:41:25;;;;;;;5.18;3.17;;;10.10;42.80;;;;;;5051819;28;20169;-54
2023/12/15 11:43:52;;;;;;;5.53;3.33;;;10.10;43.00;;;;;;5051822;28;20697;-51
2023/12/15 11:46:21;;;;;;;5.65;2.70;;;10.10;43.10;;;;;;5051654;28;20203;-56
2023/12/15 11:48:47;;;;;;;3.55;1.67;;;10.10;42.50;;;;;;5051573;28;20212;-52
2023/12/15 11:51:14;;;;;;;3.78;2.22;;;10.10;42.20;;;;;;5051891;28;20173;-52
2023/12/15 11:53:42;;;;;;;7.97;3.20;;;10.10;43.00;;;;;;5051693;28;20548;-56
2023/12/15 11:56:11;;;;;;;2.90;1.70;;;10.10;43.40;;;;;;5051617;28;20260;-49
2023/12/15 11:58:38;;;;;;;2.78;2.47;;;10.00;42.90;;;;;;5051404;28;20213;-51
2023/12/15 12:01:04;;;;;;;1.77;1.27;;;10.00;43.00;;;;;;5051499;28;20201;-56
2023/12/15 12:03:31;;;;;;;5.18;2.65;;;10.10;42.90;;;;;;5051480;28;20185;-51
2023/12/15 12:06:05;;;;;;;4.57;2.88;;;10.10;42.90;;;;;;5051554;28;20248;-57
2023/12/15 12:08:33;;;;;;;4.55;2.15;;;10.10;42.80;;;;;;5034316;28;20201;-51
2023/12/15 12:10:59;;;;;;;4.20;2.05;;;10.10;43.10;;;;;;5051535;28;20188;-49
2023/12/15 12:13:36;;;;;;;5.07;2.42;;;10.10;42.40;;;;;;5051363;28;20178;-53
2023/12/15 12:16:02;;;;;;;4.20;1.77;;;10.10;43.00;;;;;;5051579;28;20177;-50
2023/12/15 12:18:30;;;;;;;3.35;2.28;;;10.20;43.50;;;;;;5051173;28;20200;-52
2023/12/15 12:20:57;;;;;;;2.92;2.25;;;10.30;43.70;;;;;;5052217;28;20590;-55
2023/12/15 12:23:27;;;;;;;2.53;2.00;;;10.30;43.00;;;;;;5055413;28;20528;-50
2023/12/15 12:25:54;;;;;;;8.27;2.67;;;10.30;43.10;;;;;;5055196;28;20169;-49
2023/12/15 12:28:20;;;;;;;1.98;1.17;;;10.20;43.40;;;;;;5054994;28;20216;-55
2023/12/15 12:30:48;;;;;;;5.30;2.70;;;10.10;43.40;;;;;;5055397;28;20173;-50
2023/12/15 12:33:14;;;;;;;2.75;1.60;;;10.20;43.30;;;;;;5055229;28;20177;-50
2023/12/15 12:35:40;;;;;;;3.40;1.50;;;9.90;43.80;;;;;;5055155;28;20174;-52
2023/12/15 12:38:09;;;;;;;2.30;2.10;;;9.80;43.80;;;;;;5054784;28;20205;-56
2023/12/15 12:40:35;;;;;;;2.85;1.95;;;9.80;44.50;;;;;;5054812;28;20412;-50
2023/12/15 12:43:01;;;;;;;2.47;1.42;;;9.80;44.40;;;;;;5054957;28;20200;-57
2023/12/15 12:45:28;;;;;;;2.83;0.90;;;9.90;45.30;;;;;;5055021;28;20166;-51
2023/12/15 12:47:54;;;;;;;2.22;1.95;;;9.90;44.30;;;;;;5054614;28;20415;-57
2023/12/15 12:50:21;;;;;;;1.00;0.60;;;10.00;44.40;;;;;;5054883;28;20177;-58
2023/12/15 12:52:48;;;;;;;2.85;1.10;;;9.90;44.50;;;;;;5054828;28;20546;-49